createdAt,value
2023-03-31T00:00:13.211Z,0.90
2023-03-31T00:05:18.442Z,0.70
2023-03-31T00:10:20.586Z,0.73
2023-03-31T00:15:22.725Z,0.90
2023-03-31T00:20:24.734Z,0.77
2023-03-31T00:25:27.084Z,1.08
2023-03-31T00:30:29.335Z,1.00
2023-03-31T00:35:39.416Z,0.90
2023-03-31T00:40:47.246Z,0.80
2023-03-31T00:45:49.429Z,0.80
2023-03-31T00:50:58.054Z,0.90
2023-03-31T00:56:07.722Z,1.05
2023-03-31T01:01:15.608Z,0.98
2023-03-31T01:06:20.042Z,1.10
2023-03-31T01:11:26.401Z,1.10
2023-03-31T01:16:29.759Z,0.90
2023-03-31T01:22:00.730Z,1.10
2023-03-31T01:27:17.847Z,0.88
2023-03-31T01:32:41.046Z,1.20
2023-03-31T01:38:20.517Z,0.95
2023-03-31T01:43:47.928Z,1.02
2023-03-31T01:49:06.012Z,0.90
2023-03-31T01:54:23.518Z,1.33
2023-03-31T01:59:58.238Z,0.90
2023-03-31T02:05:07.170Z,1.40
2023-03-31T02:10:12.687Z,1.00
2023-03-31T02:15:24.577Z,1.10
2023-03-31T02:20:29.683Z,1.33
2023-03-31T02:25:41.640Z,1.75
2023-03-31T02:31:25.907Z,1.10
2023-03-31T02:36:28.909Z,1.15
2023-03-31T02:41:31.183Z,1.20
2023-03-31T02:46:33.655Z,1.40
2023-03-31T02:51:36.384Z,1.30
2023-03-31T02:56:59.663Z,1.27
2023-03-31T03:02:31.446Z,1.52
2023-03-31T03:07:45.914Z,1.50
2023-03-31T03:12:50.637Z,1.77
2023-03-31T03:17:53.824Z,1.50
2023-03-31T03:22:56.128Z,1.50
2023-03-31T03:27:58.189Z,1.55
2023-03-31T03:33:00.730Z,1.67
2023-03-31T03:38:02.721Z,1.65
2023-03-31T03:43:04.778Z,1.40
2023-03-31T03:48:07.065Z,1.80
2023-03-31T03:53:09.300Z,1.45
2023-03-31T03:58:11.455Z,1.55
2023-03-31T04:03:14.836Z,1.83
2023-03-31T04:08:18.278Z,1.45
2023-03-31T04:13:20.791Z,1.90
2023-03-31T04:18:25.753Z,1.38
2023-03-31T04:23:27.794Z,1.02
2023-03-31T04:28:35.254Z,1.90
2023-03-31T04:33:40.408Z,1.42
2023-03-31T04:38:42.585Z,1.52
2023-03-31T04:43:44.631Z,1.50
2023-03-31T04:48:46.752Z,1.20
2023-03-31T04:53:48.945Z,1.30
2023-03-31T04:58:51.327Z,1.35
2023-03-31T05:03:53.536Z,1.30
2023-03-31T05:08:55.940Z,1.55
2023-03-31T05:13:57.975Z,1.40
2023-03-31T05:19:00.917Z,1.40
2023-03-31T05:24:03.222Z,1.30
2023-03-31T05:29:05.798Z,1.50
2023-03-31T05:34:08.141Z,1.25
2023-03-31T05:39:10.945Z,1.40
2023-03-31T05:44:13.318Z,1.63
2023-03-31T05:49:17.249Z,1.55
2023-03-31T06:04:24.716Z,1.63
2023-03-31T06:09:28.632Z,1.75
2023-03-31T06:19:32.576Z,2.00
2023-03-31T06:24:34.750Z,2.10
2023-03-31T06:29:36.955Z,1.70
2023-03-31T06:34:39.037Z,1.92
2023-03-31T06:39:41.134Z,1.60
2023-03-31T06:44:43.225Z,2.00
2023-03-31T06:49:45.412Z,1.70
2023-03-31T06:54:47.502Z,1.75
2023-03-31T06:59:49.598Z,2.00
2023-03-31T07:04:51.660Z,1.73
2023-03-31T07:09:56.377Z,1.60
2023-03-31T07:14:58.500Z,2.17
2023-03-31T07:20:00.562Z,1.85
2023-03-31T07:25:02.620Z,1.80
2023-03-31T07:30:10.148Z,1.60
2023-03-31T07:35:12.154Z,1.60
2023-03-31T07:40:18.423Z,1.70
2023-03-31T07:45:22.421Z,2.00
2023-03-31T07:50:25.206Z,1.75
2023-03-31T07:55:29.973Z,2.00
2023-03-31T08:00:32.409Z,1.50
2023-03-31T08:05:35.162Z,1.55
2023-03-31T08:10:37.508Z,1.80
2023-03-31T08:15:39.956Z,1.77
2023-03-31T08:20:42.043Z,1.40
2023-03-31T08:25:44.029Z,1.80
2023-03-31T08:30:46.546Z,1.60
2023-03-31T08:35:48.646Z,1.63
2023-03-31T08:40:50.767Z,1.52
2023-03-31T08:45:55.995Z,1.77
2023-03-31T08:51:14.544Z,1.30
2023-03-31T08:56:20.976Z,1.65
2023-03-31T09:01:35.883Z,1.60
2023-03-31T09:07:14.336Z,1.27
2023-03-31T09:12:57.883Z,1.60
2023-03-31T09:18:20.009Z,1.92
2023-03-31T09:28:43.113Z,1.90
2023-03-31T09:33:46.998Z,1.90
2023-03-31T09:43:52.065Z,1.77
2023-03-31T09:49:11.754Z,1.90
2023-03-31T09:54:18.970Z,2.10
2023-03-31T09:59:24.167Z,1.77
2023-03-31T10:04:30.225Z,1.52
2023-03-31T10:09:34.524Z,1.73
2023-03-31T10:14:50.118Z,1.92
2023-03-31T10:20:06.556Z,2.13
2023-03-31T10:25:23.430Z,1.55
2023-03-31T10:30:38.176Z,1.83
2023-03-31T10:35:41.070Z,2.10
2023-03-31T10:40:55.261Z,2.03
2023-03-31T10:46:00.787Z,1.90
2023-03-31T10:51:15.026Z,1.80
2023-03-31T10:56:49.392Z,2.13
2023-03-31T11:01:55.956Z,2.10
2023-03-31T11:07:17.779Z,2.03
2023-03-31T11:12:19.618Z,2.17
2023-03-31T11:17:33.426Z,2.03
2023-03-31T11:22:43.620Z,1.73
2023-03-31T11:28:03.880Z,2.30
2023-03-31T11:33:29.993Z,1.70
2023-03-31T11:39:00.333Z,1.90
2023-03-31T11:44:09.762Z,2.00
2023-03-31T11:49:30.413Z,1.95
2023-03-31T11:54:45.714Z,1.85
2023-03-31T11:59:56.321Z,2.30
2023-03-31T12:04:58.769Z,1.80
2023-03-31T12:10:06.108Z,2.63
2023-03-31T12:15:25.610Z,1.85
2023-03-31T12:20:32.879Z,2.00
2023-03-31T12:25:49.634Z,2.15
2023-03-31T12:30:53.721Z,2.10
2023-03-31T12:36:24.495Z,2.10
2023-03-31T12:41:45.151Z,2.35
2023-03-31T12:46:55.805Z,2.20
2023-03-31T12:52:00.748Z,2.70
2023-03-31T12:57:14.309Z,3.13
2023-03-31T13:02:16.459Z,2.28
2023-03-31T13:07:29.104Z,2.55
2023-03-31T13:12:33.354Z,2.70
2023-03-31T13:17:39.055Z,3.05
2023-03-31T13:22:44.490Z,2.42
2023-03-31T13:27:50.284Z,2.58
2023-03-31T13:33:05.860Z,2.22
2023-03-31T13:38:45.149Z,2.55
2023-03-31T13:44:13.467Z,2.35
2023-03-31T13:49:54.322Z,2.33
2023-03-31T13:55:06.860Z,2.88
2023-03-31T14:00:30.480Z,2.85
2023-03-31T14:05:43.727Z,3.20
2023-03-31T14:10:45.931Z,2.60
2023-03-31T14:15:51.958Z,2.30
2023-03-31T14:21:40.907Z,2.40
2023-03-31T14:27:04.488Z,2.35
2023-03-31T14:32:29.344Z,2.95
2023-03-31T14:37:32.225Z,2.50
2023-03-31T14:42:39.892Z,2.80
2023-03-31T14:47:41.944Z,2.30
2023-03-31T14:52:48.742Z,2.45
2023-03-31T14:57:52.584Z,2.60
2023-03-31T15:02:55.076Z,2.60
2023-03-31T15:07:59.198Z,3.13
2023-03-31T15:13:08.080Z,2.30
2023-03-31T15:18:13.940Z,2.53
2023-03-31T15:23:25.098Z,2.42
2023-03-31T15:28:32.566Z,2.00
2023-03-31T15:33:36.911Z,2.13
2023-03-31T15:38:39.248Z,2.30
2023-03-31T15:43:53.023Z,2.08
2023-03-31T15:48:56.314Z,2.20
2023-03-31T15:53:58.515Z,2.30
2023-03-31T15:59:05.594Z,2.28
2023-03-31T16:04:10.671Z,1.73
2023-03-31T16:09:24.640Z,1.90
2023-03-31T16:14:31.563Z,2.30
2023-03-31T16:19:45.504Z,2.15
2023-03-31T16:24:48.564Z,2.30
2023-03-31T16:29:50.952Z,2.25
2023-03-31T16:34:53.925Z,2.10
2023-03-31T16:39:56.975Z,1.90
2023-03-31T16:45:12.741Z,1.95
2023-03-31T16:50:16.820Z,1.88
2023-03-31T16:55:18.928Z,1.83
2023-03-31T17:00:21.185Z,2.05
2023-03-31T17:05:23.690Z,2.17
2023-03-31T17:10:25.924Z,2.20
2023-03-31T17:15:29.898Z,1.80
2023-03-31T17:20:31.957Z,2.17
2023-03-31T17:25:36.316Z,2.30
2023-03-31T17:30:39.793Z,1.92
2023-03-31T17:35:43.244Z,1.98
2023-03-31T17:40:45.789Z,2.15
2023-03-31T17:45:48.075Z,2.30
2023-03-31T17:50:50.296Z,1.70
2023-03-31T17:55:52.372Z,2.13
2023-03-31T18:00:54.528Z,2.00
2023-03-31T18:05:57.043Z,2.03
2023-03-31T18:10:59.465Z,2.30
2023-03-31T18:16:01.641Z,2.30
2023-03-31T18:21:08.966Z,1.98
2023-03-31T18:26:13.290Z,2.30
2023-03-31T18:31:15.705Z,2.20
2023-03-31T18:36:19.699Z,2.50
2023-03-31T18:41:23.269Z,2.10
2023-03-31T18:46:25.800Z,2.10
2023-03-31T18:51:28.089Z,2.45
2023-03-31T18:56:30.181Z,2.08
2023-03-31T19:01:40.424Z,2.00
2023-03-31T19:06:42.587Z,2.30
2023-03-31T19:11:44.698Z,1.95
2023-03-31T19:16:47.038Z,2.70
2023-03-31T19:21:49.668Z,2.30
2023-03-31T19:26:51.771Z,2.30
2023-03-31T19:31:54.060Z,2.30
2023-03-31T19:36:56.819Z,2.55
2023-03-31T19:41:58.781Z,2.28
2023-03-31T19:47:00.888Z,2.35
2023-03-31T19:52:04.086Z,2.22
2023-03-31T19:57:06.813Z,2.38
2023-03-31T20:02:12.939Z,2.30
2023-03-31T20:07:15.075Z,2.40
2023-03-31T20:12:17.270Z,2.53
2023-03-31T20:17:19.547Z,2.22
2023-03-31T20:22:21.939Z,2.33
2023-03-31T20:27:26.598Z,2.50
2023-03-31T20:32:28.835Z,2.45
2023-03-31T20:37:30.924Z,2.35
2023-03-31T20:42:32.932Z,2.13
2023-03-31T20:47:35.579Z,2.33
2023-03-31T20:52:37.844Z,2.13
2023-03-31T20:57:40.356Z,2.25
2023-03-31T21:02:43.204Z,2.40
2023-03-31T21:07:45.664Z,2.53
2023-03-31T21:12:47.728Z,2.22
2023-03-31T21:17:49.800Z,2.13
2023-03-31T21:22:51.827Z,2.58
2023-03-31T21:27:54.098Z,2.05
2023-03-31T21:32:56.239Z,2.30
2023-03-31T21:37:58.456Z,2.08
2023-03-31T21:43:00.951Z,2.30
2023-03-31T21:48:04.467Z,2.28
2023-03-31T21:53:09.457Z,2.13
2023-03-31T21:58:13.033Z,2.10
2023-03-31T22:03:26.459Z,2.40
2023-03-31T22:08:31.740Z,2.70
2023-03-31T22:13:34.618Z,2.22
2023-03-31T22:18:36.694Z,2.17
2023-03-31T22:23:38.744Z,2.28
2023-03-31T22:28:40.812Z,2.55
2023-03-31T22:33:42.829Z,2.17
2023-03-31T22:38:44.997Z,2.72
2023-03-31T22:43:47.229Z,2.30
2023-03-31T22:48:50.525Z,2.40
2023-03-31T22:53:54.184Z,2.05
2023-03-31T22:58:57.678Z,3.10
2023-03-31T23:04:00.963Z,2.70
2023-03-31T23:09:03.152Z,2.35
2023-03-31T23:14:05.281Z,2.53
2023-03-31T23:19:07.758Z,2.63
2023-03-31T23:24:10.985Z,2.45
2023-03-31T23:29:13.457Z,2.55
2023-03-31T23:34:15.764Z,2.70
2023-03-31T23:39:17.797Z,2.42
2023-03-31T23:44:19.994Z,2.75
2023-03-31T23:49:22.406Z,2.83
2023-03-31T23:54:24.618Z,2.70
2023-03-31T23:59:26.626Z,2.70
